Badlands National Park, SD

7:43 PM MDT on October 21, 2014 (GMT -0600)
Philip | Change Station
CLOSE
Current Station
Airport
Location: Philip,
Elevation: 2208 ft
Nearby Weather Stations

Elev 2208 ft 44.05 °N, 101.60 °W | Updated 48 minutes ago

Clear
Clear
70 °F
Feels Like 70 °F
N
14
Wind Variable Wind from South

Today
High -- | Low -- °F
--% Chance of Precip.
Yesterday
High -- | Low -- °F
Precip. -- in
7:09 AM 5:54 PM
Waning Crescent, 3% visible
Pressure 29.69 in
Visibility 10.0 miles
Clouds Clear
Dew Point 49 °F
Humidity 47%
Rainfall 0.00 in
Snow Depth Not available.
UV 0 out of 12
Pollen 2.90 out of 12
Air Quality Not available.
Flu Activity Sporadic
METAR KPHP 220055Z AUTO 17012KT 10SM CLR 21/09 A2973 RMK AO2 SLP054 T02110094

More Conditions Fewer Conditions

Pressure 29.69 in
Visibility 10.0 miles
Clouds Clear
Dew Point 49 °F
Humidity 47%
Rainfall 0.00 in
Snow Depth Not available.
UV 0 out of 12
Pollen 2.90 out of 12
Air Quality Not available.
Flu Activity Sporadic
METAR KPHP 220055Z AUTO 17012KT 10SM CLR 21/09 A2973 RMK AO2 SLP054 T02110094

More Conditions Fewer Conditions

10-Day Weather Forecast

Almanac

Astronomy

Oct. 21, 2014 Rise Set
Actual Time 7:09 AM MDT 5:54 PM MDT
Civil Twilight 6:40 AM MDT 6:23 PM MDT
Nautical Twilight 6:06 AM MDT 6:57 PM MDT
Astronomical Twilight 5:33 AM MDT 7:30 PM MDT
Moon 4:51 AM MDT (10/21) 4:52 PM MDT (10/21)
Length of Visible Light 11h 43m
Length of Day
10h 44m
Tomorrow will be 2m 50s shorter.
Waning Crescent, 3% of the Moon is Illuminated
Today
Waning Crescent
Oct 23
New
Oct 30
First Quarter
Nov 6
Full
Nov 14
Last Quarter

Today's Extremes

State Highs State Lows

Community

WunderPhotos

Upload Photos

1,763,843 photos uploaded!

Nearby

Snow Depth

Station Depth Elevation
Blind Park 0 in 6890 ft

Earthquake Activity

City Distance Mag. Time & Date
No recent earthquake activity has been reported nearby.
Minimum magnitude displayed is 2.5.

Coastal Water Temperatures

Place Temperature
No Stations Reporting

Nearby Weather Stations